sensor_id;sensor_type;location;lat;lon;timestamp;pressure;altitude;pressure_sealevel;temperature;humidity
2339;BME280;1180;51.438;6.978;2023-04-25T00:01:37;99668.63;;;9.90;80.16
2339;BME280;1180;51.438;6.978;2023-04-25T00:04:03;99671.69;;;9.82;81.09
2339;BME280;1180;51.438;6.978;2023-04-25T00:06:31;99667.69;;;9.91;80.27
2339;BME280;1180;51.438;6.978;2023-04-25T00:08:57;99681.13;;;9.95;80.60
2339;BME280;1180;51.438;6.978;2023-04-25T00:11:23;99677.34;;;10.01;80.55
2339;BME280;1180;51.438;6.978;2023-04-25T00:13:49;99673.25;;;9.98;80.70
2339;BME280;1180;51.438;6.978;2023-04-25T00:16:15;99668.03;;;10.13;80.23
2339;BME280;1180;51.438;6.978;2023-04-25T00:18:42;99666.06;;;9.90;81.46
2339;BME280;1180;51.438;6.978;2023-04-25T00:21:07;99668.13;;;9.98;81.48
2339;BME280;1180;51.438;6.978;2023-04-25T00:23:33;99670.19;;;10.06;81.22
2339;BME280;1180;51.438;6.978;2023-04-25T00:26:01;99671.53;;;9.99;81.89
2339;BME280;1180;51.438;6.978;2023-04-25T00:28:26;99678.69;;;10.06;81.04
2339;BME280;1180;51.438;6.978;2023-04-25T00:30:51;99675.81;;;9.98;81.26
2339;BME280;1180;51.438;6.978;2023-04-25T00:33:18;99680.53;;;10.04;81.26
2339;BME280;1180;51.438;6.978;2023-04-25T00:35:43;99678.78;;;9.92;82.15
2339;BME280;1180;51.438;6.978;2023-04-25T00:38:09;99672.31;;;9.99;82.03
2339;BME280;1180;51.438;6.978;2023-04-25T00:40:34;99675.59;;;9.88;82.72
2339;BME280;1180;51.438;6.978;2023-04-25T00:43:00;99682.56;;;9.99;82.41
2339;BME280;1180;51.438;6.978;2023-04-25T00:45:31;99683.91;;;10.05;81.78
2339;BME280;1180;51.438;6.978;2023-04-25T00:47:57;99668.84;;;10.00;82.24
2339;BME280;1180;51.438;6.978;2023-04-25T00:50:24;99670.06;;;10.07;82.00
2339;BME280;1180;51.438;6.978;2023-04-25T00:52:50;99668.13;;;10.11;81.62
2339;BME280;1180;51.438;6.978;2023-04-25T00:55:16;99673.25;;;10.11;82.08
2339;BME280;1180;51.438;6.978;2023-04-25T00:57:42;99670.78;;;10.09;81.91
2339;BME280;1180;51.438;6.978;2023-04-25T01:00:09;99680.09;;;10.10;82.02
2339;BME280;1180;51.438;6.978;2023-04-25T01:02:35;99680.44;;;10.06;82.16
2339;BME280;1180;51.438;6.978;2023-04-25T01:05:01;99678.19;;;10.14;81.59
2339;BME280;1180;51.438;6.978;2023-04-25T01:07:27;99678.06;;;10.03;81.89
2339;BME280;1180;51.438;6.978;2023-04-25T01:09:52;99684.03;;;10.16;81.39
2339;BME280;1180;51.438;6.978;2023-04-25T01:12:18;99683.22;;;10.03;81.55
2339;BME280;1180;51.438;6.978;2023-04-25T01:14:43;99689.75;;;9.94;83.00
2339;BME280;1180;51.438;6.978;2023-04-25T01:17:10;99681.06;;;9.96;82.47
2339;BME280;1180;51.438;6.978;2023-04-25T01:19:36;99685.56;;;10.06;82.25
2339;BME280;1180;51.438;6.978;2023-04-25T01:22:02;99689.34;;;10.00;82.55
2339;BME280;1180;51.438;6.978;2023-04-25T01:24:27;99681.44;;;10.03;82.57
2339;BME280;1180;51.438;6.978;2023-04-25T01:26:54;99681.56;;;10.02;82.59
2339;BME280;1180;51.438;6.978;2023-04-25T01:29:23;99680.53;;;10.04;82.79
2339;BME280;1180;51.438;6.978;2023-04-25T01:31:51;99682.50;;;10.01;82.73
2339;BME280;1180;51.438;6.978;2023-04-25T01:34:18;99693.66;;;10.00;83.03
2339;BME280;1180;51.438;6.978;2023-04-25T01:36:43;99692.00;;;9.86;83.57
2339;BME280;1180;51.438;6.978;2023-04-25T01:39:09;99695.09;;;9.91;83.52
2339;BME280;1180;51.438;6.978;2023-04-25T01:41:34;99687.47;;;9.89;83.60
2339;BME280;1180;51.438;6.978;2023-04-25T01:44:00;99698.38;;;10.06;83.25
2339;BME280;1180;51.438;6.978;2023-04-25T01:46:27;99701.88;;;10.05;83.03
2339;BME280;1180;51.438;6.978;2023-04-25T01:48:52;99706.38;;;10.01;83.28
2339;BME280;1180;51.438;6.978;2023-04-25T01:51:18;99703.72;;;10.03;83.08
2339;BME280;1180;51.438;6.978;2023-04-25T01:53:43;99697.22;;;9.97;83.46
2339;BME280;1180;51.438;6.978;2023-04-25T01:56:09;99708.22;;;10.12;82.68
2339;BME280;1180;51.438;6.978;2023-04-25T01:58:35;99702.66;;;10.05;83.33
2339;BME280;1180;51.438;6.978;2023-04-25T02:01:00;99705.88;;;10.09;83.23
2339;BME280;1180;51.438;6.978;2023-04-25T02:03:26;99708.44;;;10.09;83.67
2339;BME280;1180;51.438;6.978;2023-04-25T02:05:51;99719.88;;;9.90;83.61
2339;BME280;1180;51.438;6.978;2023-04-25T02:08:17;99716.59;;;9.88;84.40
2339;BME280;1180;51.438;6.978;2023-04-25T02:10:42;99717.84;;;9.95;84.15
2339;BME280;1180;51.438;6.978;2023-04-25T02:13:08;99725.72;;;9.92;84.28
2339;BME280;1180;51.438;6.978;2023-04-25T02:15:33;99720.59;;;9.92;84.27
2339;BME280;1180;51.438;6.978;2023-04-25T02:17:59;99727.28;;;9.95;84.67
2339;BME280;1180;51.438;6.978;2023-04-25T02:20:26;99723.91;;;9.94;84.52
2339;BME280;1180;51.438;6.978;2023-04-25T02:22:51;99723.78;;;9.96;84.78
2339;BME280;1180;51.438;6.978;2023-04-25T02:25:18;99720.22;;;9.99;84.95
2339;BME280;1180;51.438;6.978;2023-04-25T02:27:45;99718.78;;;9.94;85.00
2339;BME280;1180;51.438;6.978;2023-04-25T02:30:10;99719.50;;;9.96;85.00
2339;BME280;1180;51.438;6.978;2023-04-25T02:32:36;99725.44;;;10.10;83.87
2339;BME280;1180;51.438;6.978;2023-04-25T02:35:02;99727.94;;;10.11;83.47
2339;BME280;1180;51.438;6.978;2023-04-25T02:37:35;99726.63;;;9.91;84.76
2339;BME280;1180;51.438;6.978;2023-04-25T02:40:01;99729.19;;;9.91;85.17
2339;BME280;1180;51.438;6.978;2023-04-25T02:42:28;99729.03;;;9.94;85.33
2339;BME280;1180;51.438;6.978;2023-04-25T02:44:53;99725.84;;;9.91;85.61
2339;BME280;1180;51.438;6.978;2023-04-25T02:47:19;99731.03;;;9.89;86.18
2339;BME280;1180;51.438;6.978;2023-04-25T02:49:45;99726.56;;;9.93;85.97
2339;BME280;1180;51.438;6.978;2023-04-25T02:52:11;99725.91;;;9.89;86.33
2339;BME280;1180;51.438;6.978;2023-04-25T02:54:36;99724.72;;;9.95;86.32
2339;BME280;1180;51.438;6.978;2023-04-25T02:57:02;99731.97;;;9.88;86.79
2339;BME280;1180;51.438;6.978;2023-04-25T02:59:28;99735.38;;;9.89;87.27
2339;BME280;1180;51.438;6.978;2023-04-25T03:01:53;99735.44;;;9.87;87.27
2339;BME280;1180;51.438;6.978;2023-04-25T03:04:19;99733.09;;;9.84;87.44
2339;BME280;1180;51.438;6.978;2023-04-25T03:06:44;99733.41;;;9.92;87.29
2339;BME280;1180;51.438;6.978;2023-04-25T03:09:10;99737.72;;;9.92;87.87
2339;BME280;1180;51.438;6.978;2023-04-25T03:11:38;99732.47;;;9.93;87.27
2339;BME280;1180;51.438;6.978;2023-04-25T03:14:04;99737.31;;;9.98;87.36
2339;BME280;1180;51.438;6.978;2023-04-25T03:16:29;99733.75;;;10.01;87.16
2339;BME280;1180;51.438;6.978;2023-04-25T03:18:56;99735.06;;;9.80;88.04
2339;BME280;1180;51.438;6.978;2023-04-25T03:21:23;99745.19;;;9.82;88.28
2339;BME280;1180;51.438;6.978;2023-04-25T03:23:48;99737.94;;;9.89;88.09
2339;BME280;1180;51.438;6.978;2023-04-25T03:26:14;99737.13;;;10.01;87.37
2339;BME280;1180;51.438;6.978;2023-04-25T03:28:41;99738.03;;;10.00;87.29
2339;BME280;1180;51.438;6.978;2023-04-25T03:31:07;99739.34;;;9.80;87.83
2339;BME280;1180;51.438;6.978;2023-04-25T03:33:32;99738.38;;;9.95;88.10
2339;BME280;1180;51.438;6.978;2023-04-25T03:35:57;99744.38;;;9.81;88.16
2339;BME280;1180;51.438;6.978;2023-04-25T03:38:23;99744.06;;;9.86;88.44
2339;BME280;1180;51.438;6.978;2023-04-25T03:40:50;99740.78;;;9.84;87.84
2339;BME280;1180;51.438;6.978;2023-04-25T03:43:16;99746.50;;;9.75;87.91
2339;BME280;1180;51.438;6.978;2023-04-25T03:45:42;99744.25;;;9.83;87.33
2339;BME280;1180;51.438;6.978;2023-04-25T03:48:08;99742.66;;;9.95;86.78
2339;BME280;1180;51.438;6.978;2023-04-25T03:50:33;99743.38;;;9.97;85.92
2339;BME280;1180;51.438;6.978;2023-04-25T03:52:59;99742.44;;;9.98;85.96
2339;BME280;1180;51.438;6.978;2023-04-25T03:55:24;99742.75;;;9.93;85.24
2339;BME280;1180;51.438;6.978;2023-04-25T03:57:50;99747.97;;;9.92;86.45
2339;BME280;1180;51.438;6.978;2023-04-25T04:00:15;99751.34;;;9.92;86.30
2339;BME280;1180;51.438;6.978;2023-04-25T04:02:41;99757.53;;;10.03;85.69
2339;BME280;1180;51.438;6.978;2023-04-25T04:05:06;99753.94;;;10.05;85.63
2339;BME280;1180;51.438;6.978;2023-04-25T04:07:32;99764.50;;;10.01;86.16
2339;BME280;1180;51.438;6.978;2023-04-25T04:09:58;99758.31;;;9.90;86.69
2339;BME280;1180;51.438;6.978;2023-04-25T04:12:25;99760.06;;;9.90;88.39
2339;BME280;1180;51.438;6.978;2023-04-25T04:14:50;99755.59;;;10.06;87.56
2339;BME280;1180;51.438;6.978;2023-04-25T04:17:16;99765.31;;;10.01;87.87
2339;BME280;1180;51.438;6.978;2023-04-25T04:19:41;99769.69;;;9.86;88.03
2339;BME280;1180;51.438;6.978;2023-04-25T04:22:06;99770.28;;;9.77;88.93
2339;BME280;1180;51.438;6.978;2023-04-25T04:24:32;99774.25;;;9.95;89.29
2339;BME280;1180;51.438;6.978;2023-04-25T04:26:57;99779.41;;;9.81;89.23
2339;BME280;1180;51.438;6.978;2023-04-25T04:29:24;99776.91;;;9.66;89.11
2339;BME280;1180;51.438;6.978;2023-04-25T04:31:50;99781.31;;;9.22;90.62
2339;BME280;1180;51.438;6.978;2023-04-25T04:34:18;99790.13;;;9.18;92.28
2339;BME280;1180;51.438;6.978;2023-04-25T04:36:47;99792.75;;;8.88;92.61
2339;BME280;1180;51.438;6.978;2023-04-25T04:39:13;99791.31;;;8.98;92.95
2339;BME280;1180;51.438;6.978;2023-04-25T04:41:38;99795.66;;;9.25;91.62
2339;BME280;1180;51.438;6.978;2023-04-25T04:44:04;99793.84;;;8.84;91.93
2339;BME280;1180;51.438;6.978;2023-04-25T04:46:29;99793.06;;;8.83;92.31
2339;BME280;1180;51.438;6.978;2023-04-25T04:48:56;99796.41;;;9.13;91.67
2339;BME280;1180;51.438;6.978;2023-04-25T04:51:21;99796.25;;;9.01;90.24
2339;BME280;1180;51.438;6.978;2023-04-25T04:53:47;99801.09;;;8.91;91.01
2339;BME280;1180;51.438;6.978;2023-04-25T04:56:12;99810.78;;;9.15;90.43
2339;BME280;1180;51.438;6.978;2023-04-25T04:58:37;99811.69;;;9.00;90.90
2339;BME280;1180;51.438;6.978;2023-04-25T05:01:03;99806.47;;;9.30;92.29
2339;BME280;1180;51.438;6.978;2023-04-25T05:03:28;99816.03;;;9.41;89.57
2339;BME280;1180;51.438;6.978;2023-04-25T05:05:54;99815.75;;;9.46;87.98
2339;BME280;1180;51.438;6.978;2023-04-25T05:08:19;99814.56;;;9.51;88.18
2339;BME280;1180;51.438;6.978;2023-04-25T05:10:45;99820.59;;;9.50;87.61
2339;BME280;1180;51.438;6.978;2023-04-25T05:13:10;99820.84;;;9.60;87.71
2339;BME280;1180;51.438;6.978;2023-04-25T05:15:35;99814.97;;;9.58;86.94
2339;BME280;1180;51.438;6.978;2023-04-25T05:18:01;99821.22;;;9.54;86.95
2339;BME280;1180;51.438;6.978;2023-04-25T05:20:27;99826.47;;;9.38;87.10
2339;BME280;1180;51.438;6.978;2023-04-25T05:22:52;99832.59;;;9.21;88.09
2339;BME280;1180;51.438;6.978;2023-04-25T05:25:17;99835.72;;;9.12;88.62
2339;BME280;1180;51.438;6.978;2023-04-25T05:27:43;99845.22;;;9.38;89.04
2339;BME280;1180;51.438;6.978;2023-04-25T05:30:08;99845.19;;;9.53;86.87
2339;BME280;1180;51.438;6.978;2023-04-25T05:32:34;99844.53;;;9.64;86.61
2339;BME280;1180;51.438;6.978;2023-04-25T05:35:00;99847.56;;;9.56;86.60
2339;BME280;1180;51.438;6.978;2023-04-25T05:37:26;99854.78;;;9.64;86.48
2339;BME280;1180;51.438;6.978;2023-04-25T05:39:51;99856.16;;;9.70;86.58
2339;BME280;1180;51.438;6.978;2023-04-25T05:42:16;99859.72;;;9.67;85.53
2339;BME280;1180;51.438;6.978;2023-04-25T05:44:42;99860.97;;;9.74;86.37
2339;BME280;1180;51.438;6.978;2023-04-25T05:47:07;99858.06;;;9.66;85.85
2339;BME280;1180;51.438;6.978;2023-04-25T05:49:34;99863.72;;;9.71;86.62
2339;BME280;1180;51.438;6.978;2023-04-25T05:51:59;99873.66;;;9.48;86.30
2339;BME280;1180;51.438;6.978;2023-04-25T05:54:24;99874.09;;;9.55;86.87
2339;BME280;1180;51.438;6.978;2023-04-25T05:56:50;99886.16;;;9.67;86.91
2339;BME280;1180;51.438;6.978;2023-04-25T05:59:15;99882.03;;;9.79;85.96
2339;BME280;1180;51.438;6.978;2023-04-25T06:01:41;99876.91;;;9.79;85.79
2339;BME280;1180;51.438;6.978;2023-04-25T06:04:07;99884.94;;;9.73;84.58
2339;BME280;1180;51.438;6.978;2023-04-25T06:06:32;99888.16;;;9.77;84.76
2339;BME280;1180;51.438;6.978;2023-04-25T06:08:57;99883.69;;;9.80;83.52
2339;BME280;1180;51.438;6.978;2023-04-25T06:11:23;99885.50;;;9.78;82.99
2339;BME280;1180;51.438;6.978;2023-04-25T06:13:48;99893.06;;;9.94;83.92
2339;BME280;1180;51.438;6.978;2023-04-25T06:16:13;99896.25;;;9.98;83.30
2339;BME280;1180;51.438;6.978;2023-04-25T06:18:40;99898.22;;;9.80;83.49
2339;BME280;1180;51.438;6.978;2023-04-25T06:21:05;99895.84;;;9.77;83.17
2339;BME280;1180;51.438;6.978;2023-04-25T06:23:30;99893.47;;;9.74;82.40
2339;BME280;1180;51.438;6.978;2023-04-25T06:25:56;99894.94;;;9.78;82.40
2339;BME280;1180;51.438;6.978;2023-04-25T06:28:21;99900.31;;;9.73;83.14
2339;BME280;1180;51.438;6.978;2023-04-25T06:30:47;99896.66;;;9.77;83.67
2339;BME280;1180;51.438;6.978;2023-04-25T06:33:12;99895.19;;;9.73;84.40
2339;BME280;1180;51.438;6.978;2023-04-25T06:35:37;99897.06;;;9.57;84.20
2339;BME280;1180;51.438;6.978;2023-04-25T06:38:03;99901.53;;;9.53;84.15
2339;BME280;1180;51.438;6.978;2023-04-25T06:40:28;99905.75;;;9.25;84.27
2339;BME280;1180;51.438;6.978;2023-04-25T06:42:54;99899.34;;;9.47;84.75
2339;BME280;1180;51.438;6.978;2023-04-25T06:45:19;99905.78;;;9.39;83.67
2339;BME280;1180;51.438;6.978;2023-04-25T06:47:44;99912.91;;;9.34;83.72
2339;BME280;1180;51.438;6.978;2023-04-25T06:50:10;99918.09;;;9.33;82.64
2339;BME280;1180;51.438;6.978;2023-04-25T06:52:36;99921.41;;;8.75;83.74
2339;BME280;1180;51.438;6.978;2023-04-25T06:55:01;99913.06;;;8.41;86.51
2339;BME280;1180;51.438;6.978;2023-04-25T06:57:27;99920.00;;;8.39;87.48
2339;BME280;1180;51.438;6.978;2023-04-25T06:59:53;99917.41;;;8.86;87.08
2339;BME280;1180;51.438;6.978;2023-04-25T07:02:19;99926.78;;;9.16;84.81
2339;BME280;1180;51.438;6.978;2023-04-25T07:04:46;99928.91;;;9.23;83.20
2339;BME280;1180;51.438;6.978;2023-04-25T07:07:11;99931.13;;;8.85;83.52
2339;BME280;1180;51.438;6.978;2023-04-25T07:09:36;99925.56;;;9.07;83.51
2339;BME280;1180;51.438;6.978;2023-04-25T07:12:02;99936.66;;;9.07;82.15
2339;BME280;1180;51.438;6.978;2023-04-25T07:14:28;99931.78;;;9.03;82.57
2339;BME280;1180;51.438;6.978;2023-04-25T07:16:53;99941.47;;;8.98;83.32
2339;BME280;1180;51.438;6.978;2023-04-25T07:19:21;99932.66;;;9.32;82.29
2339;BME280;1180;51.438;6.978;2023-04-25T07:21:49;99942.63;;;9.66;80.53
2339;BME280;1180;51.438;6.978;2023-04-25T07:24:14;99937.66;;;9.77;78.19
2339;BME280;1180;51.438;6.978;2023-04-25T07:26:39;99948.91;;;9.89;76.17
2339;BME280;1180;51.438;6.978;2023-04-25T07:29:05;99947.28;;;9.74;75.65
2339;BME280;1180;51.438;6.978;2023-04-25T07:31:30;99945.28;;;10.06;76.09
2339;BME280;1180;51.438;6.978;2023-04-25T07:33:55;99952.00;;;10.09;74.89
2339;BME280;1180;51.438;6.978;2023-04-25T07:36:21;99952.53;;;10.14;74.02
2339;BME280;1180;51.438;6.978;2023-04-25T07:38:46;99950.84;;;9.71;74.68
2339;BME280;1180;51.438;6.978;2023-04-25T07:41:11;99951.75;;;9.70;75.03
2339;BME280;1180;51.438;6.978;2023-04-25T07:43:37;99950.66;;;9.89;73.65
2339;BME280;1180;51.438;6.978;2023-04-25T07:46:02;99953.66;;;9.95;73.60
2339;BME280;1180;51.438;6.978;2023-04-25T07:48:28;99962.50;;;10.19;71.74
2339;BME280;1180;51.438;6.978;2023-04-25T07:50:53;99959.75;;;10.22;70.30
2339;BME280;1180;51.438;6.978;2023-04-25T07:53:18;99963.16;;;10.50;69.66
2339;BME280;1180;51.438;6.978;2023-04-25T07:55:43;99957.44;;;10.59;68.54
2339;BME280;1180;51.438;6.978;2023-04-25T07:58:11;99971.69;;;10.36;69.01
2339;BME280;1180;51.438;6.978;2023-04-25T08:00:37;99982.50;;;10.26;70.17
2339;BME280;1180;51.438;6.978;2023-04-25T08:03:03;99979.47;;;10.07;69.54
2339;BME280;1180;51.438;6.978;2023-04-25T08:05:29;99983.50;;;10.38;70.44
2339;BME280;1180;51.438;6.978;2023-04-25T08:07:54;99986.78;;;10.13;68.36
2339;BME280;1180;51.438;6.978;2023-04-25T08:10:21;99988.53;;;10.13;67.43
2339;BME280;1180;51.438;6.978;2023-04-25T08:12:48;99991.00;;;10.56;67.56
2339;BME280;1180;51.438;6.978;2023-04-25T08:15:13;99992.19;;;10.78;66.62
2339;BME280;1180;51.438;6.978;2023-04-25T08:17:39;99996.88;;;11.11;66.11
2339;BME280;1180;51.438;6.978;2023-04-25T08:20:05;100000.75;;;10.91;65.67
2339;BME280;1180;51.438;6.978;2023-04-25T08:22:31;99992.44;;;11.01;65.06
2339;BME280;1180;51.438;6.978;2023-04-25T08:24:56;99996.25;;;11.21;64.07
2339;BME280;1180;51.438;6.978;2023-04-25T08:27:22;100003.97;;;11.34;63.37
2339;BME280;1180;51.438;6.978;2023-04-25T08:29:47;100007.97;;;11.25;61.23
2339;BME280;1180;51.438;6.978;2023-04-25T08:32:12;100008.59;;;11.16;60.30
2339;BME280;1180;51.438;6.978;2023-04-25T08:34:38;100018.81;;;10.62;62.25
2339;BME280;1180;51.438;6.978;2023-04-25T08:37:07;100021.78;;;10.56;63.21
2339;BME280;1180;51.438;6.978;2023-04-25T08:39:33;100018.09;;;9.89;65.72
2339;BME280;1180;51.438;6.978;2023-04-25T08:41:58;100023.34;;;9.88;67.78
2339;BME280;1180;51.438;6.978;2023-04-25T08:44:26;100028.16;;;10.07;69.27
2339;BME280;1180;51.438;6.978;2023-04-25T08:46:52;100028.00;;;9.95;69.47
2339;BME280;1180;51.438;6.978;2023-04-25T08:49:17;100028.44;;;9.73;69.17
2339;BME280;1180;51.438;6.978;2023-04-25T08:51:45;100034.22;;;9.77;69.80
2339;BME280;1180;51.438;6.978;2023-04-25T08:54:15;100037.84;;;10.31;68.99
2339;BME280;1180;51.438;6.978;2023-04-25T08:56:44;100037.19;;;10.56;66.53
2339;BME280;1180;51.438;6.978;2023-04-25T08:59:12;100046.44;;;10.86;66.71
2339;BME280;1180;51.438;6.978;2023-04-25T09:01:37;100038.44;;;11.04;63.74
2339;BME280;1180;51.438;6.978;2023-04-25T09:04:03;100045.78;;;11.23;59.94
2339;BME280;1180;51.438;6.978;2023-04-25T09:06:29;100051.84;;;11.22;60.18
2339;BME280;1180;51.438;6.978;2023-04-25T09:09:02;100052.09;;;10.64;59.25
2339;BME280;1180;51.438;6.978;2023-04-25T09:11:28;100067.72;;;10.74;60.80
2339;BME280;1180;51.438;6.978;2023-04-25T09:19:32;100067.00;;;10.72;60.57
2339;BME280;1180;51.438;6.978;2023-04-25T09:22:00;100072.03;;;10.73;60.19
2339;BME280;1180;51.438;6.978;2023-04-25T09:24:35;100065.59;;;11.21;60.20
2339;BME280;1180;51.438;6.978;2023-04-25T09:27:10;100068.53;;;11.29;58.62
2339;BME280;1180;51.438;6.978;2023-04-25T09:29:37;100076.16;;;10.76;59.60
2339;BME280;1180;51.438;6.978;2023-04-25T09:34:47;100079.00;;;11.52;60.14
2339;BME280;1180;51.438;6.978;2023-04-25T09:37:24;100081.28;;;11.56;58.68
2339;BME280;1180;51.438;6.978;2023-04-25T09:39:54;100087.25;;;11.57;60.31
2339;BME280;1180;51.438;6.978;2023-04-25T09:42:24;100084.91;;;11.13;56.19
2339;BME280;1180;51.438;6.978;2023-04-25T09:44:52;100100.72;;;11.07;55.67
2339;BME280;1180;51.438;6.978;2023-04-25T09:47:18;100094.75;;;11.07;55.38
2339;BME280;1180;51.438;6.978;2023-04-25T09:49:46;100087.94;;;11.33;54.71
2339;BME280;1180;51.438;6.978;2023-04-25T09:52:17;100092.28;;;11.46;52.59
2339;BME280;1180;51.438;6.978;2023-04-25T09:54:44;100089.38;;;11.37;53.15
2339;BME280;1180;51.438;6.978;2023-04-25T09:57:17;100098.38;;;11.70;54.80
2339;BME280;1180;51.438;6.978;2023-04-25T09:59:44;100093.94;;;11.98;53.33
2339;BME280;1180;51.438;6.978;2023-04-25T10:02:11;100102.41;;;12.01;54.39
2339;BME280;1180;51.438;6.978;2023-04-25T10:04:37;100105.78;;;12.27;52.02
2339;BME280;1180;51.438;6.978;2023-04-25T10:07:05;100105.06;;;12.12;50.14
2339;BME280;1180;51.438;6.978;2023-04-25T10:09:32;100105.66;;;11.77;50.11
2339;BME280;1180;51.438;6.978;2023-04-25T10:12:00;100098.56;;;12.19;51.21
2339;BME280;1180;51.438;6.978;2023-04-25T10:14:26;100105.56;;;12.17;49.25
2339;BME280;1180;51.438;6.978;2023-04-25T10:16:53;100110.00;;;11.63;49.49
2339;BME280;1180;51.438;6.978;2023-04-25T10:19:22;100115.47;;;11.04;51.82
2339;BME280;1180;51.438;6.978;2023-04-25T10:24:31;100116.97;;;11.87;51.47
2339;BME280;1180;51.438;6.978;2023-04-25T10:26:58;100121.41;;;12.24;51.62
2339;BME280;1180;51.438;6.978;2023-04-25T10:29:27;100116.50;;;12.58;50.63
2339;BME280;1180;51.438;6.978;2023-04-25T10:31:52;100118.72;;;12.76;50.65
2339;BME280;1180;51.438;6.978;2023-04-25T10:34:19;100122.94;;;12.39;49.73
2339;BME280;1180;51.438;6.978;2023-04-25T10:36:50;100133.13;;;11.89;50.76
2339;BME280;1180;51.438;6.978;2023-04-25T10:39:24;100124.50;;;12.16;51.17
2339;BME280;1180;51.438;6.978;2023-04-25T10:41:56;100121.72;;;12.32;49.42
2339;BME280;1180;51.438;6.978;2023-04-25T10:44:26;100121.28;;;11.74;49.82
2339;BME280;1180;51.438;6.978;2023-04-25T10:46:51;100126.47;;;11.33;51.69
2339;BME280;1180;51.438;6.978;2023-04-25T10:49:33;100132.06;;;11.53;53.24
2339;BME280;1180;51.438;6.978;2023-04-25T10:52:15;100135.69;;;11.23;53.90
2339;BME280;1180;51.438;6.978;2023-04-25T10:55:07;100147.34;;;10.87;55.88
2339;BME280;1180;51.438;6.978;2023-04-25T11:00:22;100144.28;;;10.67;58.01
2339;BME280;1180;51.438;6.978;2023-04-25T11:02:51;100151.19;;;10.52;59.96
2339;BME280;1180;51.438;6.978;2023-04-25T11:05:22;100156.53;;;10.18;64.05
2339;BME280;1180;51.438;6.978;2023-04-25T11:07:52;100161.63;;;9.75;67.12
2339;BME280;1180;51.438;6.978;2023-04-25T11:10:19;100169.28;;;9.44;67.65
2339;BME280;1180;51.438;6.978;2023-04-25T11:12:46;100162.38;;;9.46;68.41
2339;BME280;1180;51.438;6.978;2023-04-25T11:15:12;100154.88;;;9.88;67.71
2339;BME280;1180;51.438;6.978;2023-04-25T11:17:38;100161.44;;;9.78;67.69
2339;BME280;1180;51.438;6.978;2023-04-25T11:20:07;100160.47;;;9.95;66.79
2339;BME280;1180;51.438;6.978;2023-04-25T11:22:38;100165.72;;;10.08;66.23
2339;BME280;1180;51.438;6.978;2023-04-25T11:25:11;100157.72;;;9.98;65.91
2339;BME280;1180;51.438;6.978;2023-04-25T11:30:20;100160.31;;;10.27;65.12
2339;BME280;1180;51.438;6.978;2023-04-25T11:32:46;100171.56;;;10.24;61.23
2339;BME280;1180;51.438;6.978;2023-04-25T11:35:12;100172.53;;;10.52;61.00
2339;BME280;1180;51.438;6.978;2023-04-25T11:37:43;100169.56;;;10.59;58.93
2339;BME280;1180;51.438;6.978;2023-04-25T11:40:10;100154.56;;;10.67;59.69
2339;BME280;1180;51.438;6.978;2023-04-25T11:42:45;100159.69;;;10.67;58.77
2339;BME280;1180;51.438;6.978;2023-04-25T11:45:11;100168.50;;;10.63;59.30
2339;BME280;1180;51.438;6.978;2023-04-25T11:47:37;100159.31;;;10.73;59.63
2339;BME280;1180;51.438;6.978;2023-04-25T11:50:05;100163.41;;;10.90;59.44
2339;BME280;1180;51.438;6.978;2023-04-25T11:52:46;100157.84;;;11.38;57.38
2339;BME280;1180;51.438;6.978;2023-04-25T11:55:16;100169.28;;;12.01;55.61
2339;BME280;1180;51.438;6.978;2023-04-25T11:57:44;100152.44;;;11.82;55.32
2339;BME280;1180;51.438;6.978;2023-04-25T12:00:13;100152.66;;;11.79;53.03
2339;BME280;1180;51.438;6.978;2023-04-25T12:02:41;100169.53;;;11.96;53.89
2339;BME280;1180;51.438;6.978;2023-04-25T12:05:08;100169.50;;;12.10;53.51
2339;BME280;1180;51.438;6.978;2023-04-25T12:07:35;100176.38;;;12.23;53.29
2339;BME280;1180;51.438;6.978;2023-04-25T12:10:06;100163.75;;;11.92;53.68
2339;BME280;1180;51.438;6.978;2023-04-25T12:12:33;100182.03;;;12.15;55.18
2339;BME280;1180;51.438;6.978;2023-04-25T12:17:35;100182.84;;;12.03;55.12
2339;BME280;1180;51.438;6.978;2023-04-25T12:20:25;100186.44;;;12.39;55.50
2339;BME280;1180;51.438;6.978;2023-04-25T12:22:52;100185.00;;;12.35;55.25
2339;BME280;1180;51.438;6.978;2023-04-25T12:25:40;100187.28;;;12.26;56.35
2339;BME280;1180;51.438;6.978;2023-04-25T12:28:20;100185.94;;;12.34;56.76
2339;BME280;1180;51.438;6.978;2023-04-25T12:33:19;100186.81;;;12.71;53.61
2339;BME280;1180;51.438;6.978;2023-04-25T12:35:45;100181.63;;;12.84;51.71
2339;BME280;1180;51.438;6.978;2023-04-25T12:38:10;100181.09;;;12.92;51.82
2339;BME280;1180;51.438;6.978;2023-04-25T12:40:36;100184.97;;;13.11;50.52
2339;BME280;1180;51.438;6.978;2023-04-25T12:43:02;100182.72;;;12.56;48.03
2339;BME280;1180;51.438;6.978;2023-04-25T12:45:27;100181.16;;;12.66;45.99
2339;BME280;1180;51.438;6.978;2023-04-25T12:47:53;100192.66;;;12.74;46.22
2339;BME280;1180;51.438;6.978;2023-04-25T12:50:18;100185.41;;;12.92;48.15
2339;BME280;1180;51.438;6.978;2023-04-25T12:52:44;100173.22;;;13.31;48.77
2339;BME280;1180;51.438;6.978;2023-04-25T12:55:09;100175.56;;;13.58;48.52
2339;BME280;1180;51.438;6.978;2023-04-25T12:57:35;100180.78;;;13.81;48.13
2339;BME280;1180;51.438;6.978;2023-04-25T13:00:00;100180.88;;;13.68;48.84
2339;BME280;1180;51.438;6.978;2023-04-25T13:02:26;100174.66;;;13.71;48.85
2339;BME280;1180;51.438;6.978;2023-04-25T13:04:52;100167.84;;;13.58;47.34
2339;BME280;1180;51.438;6.978;2023-04-25T13:07:17;100172.63;;;13.39;48.12
2339;BME280;1180;51.438;6.978;2023-04-25T13:09:43;100172.66;;;13.14;48.02
2339;BME280;1180;51.438;6.978;2023-04-25T13:12:08;100180.47;;;12.89;49.64
2339;BME280;1180;51.438;6.978;2023-04-25T13:14:34;100197.38;;;12.17;52.71
2339;BME280;1180;51.438;6.978;2023-04-25T13:17:00;100212.50;;;11.40;54.90
2339;BME280;1180;51.438;6.978;2023-04-25T13:19:25;100221.00;;;10.72;61.11
2339;BME280;1180;51.438;6.978;2023-04-25T13:21:51;100229.38;;;10.30;67.84
2339;BME280;1180;51.438;6.978;2023-04-25T13:24:16;100218.66;;;10.23;72.22
2339;BME280;1180;51.438;6.978;2023-04-25T13:26:43;100227.06;;;10.25;72.37
2339;BME280;1180;51.438;6.978;2023-04-25T13:29:08;100227.03;;;10.42;72.06
2339;BME280;1180;51.438;6.978;2023-04-25T13:31:34;100230.13;;;10.32;73.29
2339;BME280;1180;51.438;6.978;2023-04-25T13:34:00;100231.34;;;10.55;74.06
2339;BME280;1180;51.438;6.978;2023-04-25T13:36:25;100214.22;;;10.85;74.55
2339;BME280;1180;51.438;6.978;2023-04-25T13:38:51;100219.16;;;10.74;67.35
2339;BME280;1180;51.438;6.978;2023-04-25T13:41:17;100223.13;;;11.21;67.83